Time;durP1;ratioP1;P1;durP2;ratioP2;P2;SDS_P1;SDS_P2;PMS_P1;PMS_P2;Temp;Humidity;BMP_temperature;BMP_pressure;BME280_temperature;BME280_humidity;BME280_pressure;Samples;Min_cycle;Max_cycle;Signal;HPM_P1;HPM_P2
2022/07/23 00:00:43;;;;;;;4.10;2.65;;;;;;;35.63;24.96;98214.91;5022032;28;20112;-82
2022/07/23 00:03:09;;;;;;;3.10;2.42;;;;;;;35.21;25.43;98209.91;5022776;28;20053;-82
2022/07/23 00:05:35;;;;;;;4.95;2.28;;;;;;;35.14;25.60;98203.88;5024816;28;20037;-82
2022/07/23 00:08:01;;;;;;;2.72;2.45;;;;;;;35.35;25.38;98205.34;5022118;28;20107;-82
2022/07/23 00:10:27;;;;;;;4.40;2.65;;;;;;;35.17;25.56;98206.50;5025436;28;20033;-82
2022/07/23 00:12:54;;;;;;;4.15;2.58;;;;;;;35.24;25.41;98211.72;5022179;28;20058;-82
2022/07/23 00:15:20;;;;;;;2.30;2.10;;;;;;;35.44;24.84;98210.84;5024599;28;20033;-82
2022/07/23 00:17:46;;;;;;;4.15;2.40;;;;;;;35.26;25.42;98206.31;5022650;28;20404;-82
2022/07/23 00:20:12;;;;;;;4.45;2.75;;;;;;;35.05;25.86;98206.94;5023293;28;20047;-82
2022/07/23 00:22:49;;;;;;;2.63;2.25;;;;;;;34.93;25.52;98213.78;5021654;28;20076;-82
2022/07/23 00:25:16;;;;;;;2.85;2.33;;;;;;;35.14;26.17;98218.16;5021957;28;20112;-82
2022/07/23 00:27:42;;;;;;;2.13;1.88;;;;;;;35.34;25.23;98212.31;5022983;28;20021;-82
2022/07/23 00:30:09;;;;;;;3.90;2.28;;;;;;;35.19;25.50;98209.66;5023214;28;20167;-81
2022/07/23 00:32:53;;;;;;;2.72;2.30;;;;;;;35.02;25.37;98216.50;5024459;28;20033;-82
2022/07/23 00:35:26;;;;;;;1.83;1.73;;;;;;;35.16;25.26;98209.88;5024550;28;20029;-82
2022/07/23 00:37:54;;;;;;;2.85;2.28;;;;;;;35.32;25.06;98217.75;5024163;28;20038;-81
2022/07/23 00:40:20;;;;;;;3.35;2.50;;;;;;;35.42;25.13;98217.06;5024438;28;20171;-81
2022/07/23 00:42:46;;;;;;;4.30;2.42;;;;;;;35.61;24.92;98228.91;5022998;28;20548;-81
2022/07/23 00:45:12;;;;;;;2.63;2.00;;;;;;;35.34;25.41;98223.75;5026362;28;20394;-82
2022/07/23 00:47:38;;;;;;;3.33;2.20;;;;;;;35.20;25.29;98211.19;5023873;28;20030;-82
2022/07/23 00:50:07;;;;;;;2.08;1.88;;;;;;;35.26;25.22;98219.81;5024230;28;20226;-82
2022/07/23 00:52:34;;;;;;;3.95;2.55;;;;;;;35.39;24.87;98231.56;5020072;28;20091;-81
2022/07/23 00:55:00;;;;;;;3.13;2.60;;;;;;;35.53;24.93;98224.94;5024253;28;20908;-81
2022/07/23 00:57:26;;;;;;;2.70;2.45;;;;;;;35.64;24.55;98225.00;5023170;28;20393;-81
2022/07/23 00:59:53;;;;;;;2.92;2.63;;;;;;;35.58;24.81;98224.22;5026347;28;20145;-81
2022/07/23 01:02:19;;;;;;;4.53;2.10;;;;;;;35.16;25.52;98224.94;5023640;28;20029;-82
2022/07/23 01:04:46;;;;;;;3.08;2.20;;;;;;;34.98;25.38;98228.13;5022660;28;20124;-81
2022/07/23 01:07:12;;;;;;;3.83;2.60;;;;;;;35.16;25.41;98227.00;5022154;28;20037;-81
2022/07/23 01:09:38;;;;;;;4.18;2.70;;;;;;;35.27;25.59;98232.78;5020135;28;20033;-82
2022/07/23 01:12:06;;;;;;;2.95;2.30;;;;;;;34.86;25.93;98225.66;5019601;28;20060;-82
2022/07/23 01:14:32;;;;;;;2.63;2.40;;;;;;;34.53;26.38;98221.22;5027905;28;20030;-82
2022/07/23 01:16:58;;;;;;;5.10;2.63;;;;;;;34.54;26.36;98222.75;5028223;28;20517;-81
2022/07/23 01:19:24;;;;;;;2.55;2.35;;;;;;;34.68;26.06;98224.72;5026393;28;20124;-82
2022/07/23 01:21:53;;;;;;;2.60;2.40;;;;;;;34.85;26.12;98224.09;5030299;28;20088;-82
2022/07/23 01:24:19;;;;;;;3.65;2.15;;;;;;;35.10;25.35;98220.47;5028649;28;20347;-82
2022/07/23 01:26:47;;;;;;;4.78;2.75;;;;;;;35.18;25.17;98216.63;5028768;28;20045;-82
2022/07/23 01:29:14;;;;;;;3.13;2.45;;;;;;;35.03;25.44;98218.84;5025312;28;20112;-82
2022/07/23 01:31:40;;;;;;;3.17;2.25;;;;;;;35.10;25.43;98215.50;5028671;28;20025;-82
2022/07/23 01:34:07;;;;;;;2.88;2.30;;;;;;;34.88;25.82;98217.38;5023830;28;20316;-81
2022/07/23 01:36:34;;;;;;;4.63;2.08;;;;;;;34.80;25.72;98217.03;5023295;28;20034;-81
2022/07/23 01:39:00;;;;;;;2.67;2.03;;;;;;;35.01;25.38;98217.78;5027477;28;20033;-82
2022/07/23 01:41:26;;;;;;;4.43;2.75;;;;;;;34.80;26.03;98224.84;5026614;28;20033;-81
2022/07/23 01:43:52;;;;;;;2.78;2.35;;;;;;;34.69;25.99;98220.59;5025810;28;20037;-81
2022/07/23 01:46:19;;;;;;;4.18;2.55;;;;;;;34.65;25.99;98228.59;5020838;28;20095;-81
2022/07/23 01:48:45;;;;;;;3.30;2.40;;;;;;;34.73;25.97;98220.34;5020234;28;20753;-81
2022/07/23 01:51:11;;;;;;;3.45;2.50;;;;;;;34.75;26.02;98215.72;5026378;28;20052;-81
2022/07/23 01:53:37;;;;;;;3.45;2.63;;;;;;;34.39;26.49;98219.22;5024550;28;20037;-81
2022/07/23 01:56:04;;;;;;;2.45;2.25;;;;;;;34.20;26.94;98217.16;5022887;28;20112;-81
2022/07/23 01:58:30;;;;;;;3.15;2.50;;;;;;;34.28;26.49;98213.38;5022900;28;20037;-81
2022/07/23 02:00:56;;;;;;;2.55;2.20;;;;;;;34.13;26.78;98212.69;5023292;28;20030;-81
2022/07/23 02:03:23;;;;;;;2.47;2.28;;;;;;;34.40;26.10;98214.28;5022786;28;20508;-81
2022/07/23 02:05:49;;;;;;;2.10;1.98;;;;;;;34.54;26.18;98216.28;5023126;28;20034;-81
2022/07/23 02:08:16;;;;;;;5.03;2.60;;;;;;;34.65;26.08;98222.88;5021405;28;20040;-81
2022/07/23 02:10:42;;;;;;;5.35;3.00;;;;;;;34.75;25.80;98214.94;5021260;28;20109;-81
2022/07/23 02:13:08;;;;;;;6.10;3.35;;;;;;;34.83;25.66;98221.75;5023567;28;20076;-81
2022/07/23 02:15:34;;;;;;;2.28;2.08;;;;;;;34.88;25.68;98217.38;5023912;28;20034;-81
2022/07/23 02:18:00;;;;;;;3.33;2.70;;;;;;;34.94;25.47;98224.69;5026445;28;20060;-81
2022/07/23 02:20:26;;;;;;;2.75;2.55;;;;;;;34.38;26.08;98219.72;5026199;28;20109;-81
2022/07/23 02:22:52;;;;;;;2.60;2.38;;;;;;;34.04;26.54;98219.31;5021729;28;20033;-81
2022/07/23 02:25:19;;;;;;;2.63;2.42;;;;;;;34.32;25.96;98213.94;5021838;28;20044;-81
2022/07/23 02:27:45;;;;;;;3.97;2.65;;;;;;;34.62;25.40;98215.34;5021887;28;20045;-81
2022/07/23 02:30:11;;;;;;;3.28;2.97;;;;;;;34.85;25.88;98219.16;5022956;28;20106;-81
2022/07/23 02:32:39;;;;;;;3.25;2.40;;;;;;;34.88;25.43;98214.53;5021311;28;20041;-81
2022/07/23 02:35:06;;;;;;;5.55;2.50;;;;;;;34.60;25.81;98205.72;5020311;28;20091;-81
2022/07/23 02:37:32;;;;;;;2.65;2.00;;;;;;;34.60;25.84;98211.41;5021675;28;20041;-81
2022/07/23 02:39:59;;;;;;;4.32;2.42;;;;;;;34.64;25.07;98204.19;5021572;28;20029;-81
2022/07/23 02:42:25;;;;;;;2.58;2.30;;;;;;;34.34;25.72;98216.28;5025868;28;20053;-81
2022/07/23 02:44:52;;;;;;;3.83;2.22;;;;;;;34.37;26.35;98207.53;5026894;28;20029;-81
2022/07/23 02:47:18;;;;;;;2.47;2.30;;;;;;;34.53;25.93;98220.41;5025673;28;20037;-81
2022/07/23 02:49:44;;;;;;;2.25;2.05;;;;;;;34.52;25.95;98219.63;5025659;28;20037;-81
2022/07/23 02:52:10;;;;;;;2.85;2.53;;;;;;;34.34;26.56;98217.06;5023631;28;20029;-81
2022/07/23 02:54:37;;;;;;;3.10;2.42;;;;;;;34.52;25.89;98213.09;5027785;28;20025;-81
2022/07/23 02:57:04;;;;;;;2.80;2.13;;;;;;;34.50;26.07;98210.75;5026104;28;20030;-81
2022/07/23 02:59:30;;;;;;;3.80;2.60;;;;;;;34.41;26.25;98216.63;5023913;28;20037;-81
2022/07/23 03:01:56;;;;;;;4.43;2.60;;;;;;;34.31;26.22;98223.78;5027078;28;20039;-81
2022/07/23 03:04:22;;;;;;;3.00;2.40;;;;;;;34.43;26.02;98216.91;5027891;28;20560;-81
2022/07/23 03:06:48;;;;;;;3.90;2.63;;;;;;;34.51;26.00;98215.19;5026699;28;20048;-81
2022/07/23 03:09:14;;;;;;;4.40;2.83;;;;;;;34.17;26.61;98213.25;5024802;28;20045;-82
2022/07/23 03:11:40;;;;;;;3.03;2.75;;;;;;;33.97;26.60;98213.22;5024701;28;20053;-81
2022/07/23 03:14:07;;;;;;;2.97;2.03;;;;;;;34.15;26.02;98210.09;5024061;28;20036;-81
2022/07/23 03:16:33;;;;;;;2.38;2.17;;;;;;;34.52;25.99;98211.06;5025462;28;20355;-81
2022/07/23 03:18:59;;;;;;;5.20;2.53;;;;;;;34.72;25.61;98213.88;5026864;28;20053;-81
2022/07/23 03:21:25;;;;;;;3.60;2.80;;;;;;;34.89;25.97;98216.91;5031018;28;20039;-81
2022/07/23 03:23:51;;;;;;;5.65;2.50;;;;;;;34.86;25.62;98208.53;5031301;28;20539;-81
2022/07/23 03:26:17;;;;;;;3.22;2.92;;;;;;;34.65;26.02;98210.69;5023289;28;20034;-81
2022/07/23 03:28:43;;;;;;;2.10;2.00;;;;;;;34.36;26.70;98203.09;5023782;28;20049;-81
2022/07/23 03:31:10;;;;;;;2.78;2.38;;;;;;;34.35;26.69;98200.75;5024601;28;20038;-81
2022/07/23 03:33:36;;;;;;;3.10;2.40;;;;;;;34.47;26.47;98200.34;5027768;28;20030;-81
2022/07/23 03:36:02;;;;;;;2.60;2.25;;;;;;;34.70;26.00;98204.25;5022570;28;20045;-81
2022/07/23 03:38:28;;;;;;;4.57;2.67;;;;;;;35.00;25.67;98199.84;5024228;28;20510;-81
2022/07/23 03:40:55;;;;;;;2.45;2.13;;;;;;;35.21;25.51;98203.41;5021923;28;20033;-81
2022/07/23 03:43:21;;;;;;;2.63;2.30;;;;;;;35.20;25.49;98207.56;5023043;28;20064;-81
2022/07/23 03:45:47;;;;;;;3.78;1.98;;;;;;;35.30;25.28;98203.22;5026610;28;20041;-81
2022/07/23 03:48:13;;;;;;;4.40;3.28;;;;;;;35.76;25.44;98214.44;5024332;28;20069;-81
2022/07/23 03:50:39;;;;;;;3.15;2.47;;;;;;;36.01;25.44;98214.31;5022225;28;20080;-81
2022/07/23 03:53:05;;;;;;;3.05;2.78;;;;;;;36.35;25.21;98211.59;5026412;28;20046;-81
2022/07/23 03:55:31;;;;;;;5.72;2.80;;;;;;;36.63;24.59;98212.47;5021793;28;20076;-80
2022/07/23 03:57:57;;;;;;;2.47;2.30;;;;;;;36.41;24.48;98207.44;5024599;28;20041;-80
2022/07/23 04:00:23;;;;;;;2.70;2.50;;;;;;;36.12;25.00;98210.75;5021789;28;20050;-80
2022/07/23 04:02:49;;;;;;;2.80;2.60;;;;;;;36.06;25.01;98210.72;5025040;28;20034;-80
2022/07/23 04:05:15;;;;;;;5.28;2.53;;;;;;;36.06;25.38;98207.06;5025855;28;20052;-80
2022/07/23 04:07:42;;;;;;;3.22;2.20;;;;;;;36.22;25.53;98197.78;5026344;28;20037;-81
2022/07/23 04:10:08;;;;;;;3.38;2.58;;;;;;;36.44;25.76;98203.56;5025518;28;20572;-80
2022/07/23 04:12:35;;;;;;;3.38;2.72;;;;;;;36.68;25.31;98206.75;5027587;28;20038;-81
2022/07/23 04:15:01;;;;;;;3.17;2.38;;;;;;;36.84;25.04;98205.22;5022701;28;20041;-82
2022/07/23 04:17:28;;;;;;;2.85;2.65;;;;;;;36.90;25.14;98200.25;5028128;28;20046;-82
2022/07/23 04:19:54;;;;;;;3.90;2.35;;;;;;;36.93;25.04;98204.97;5025755;28;20033;-82
2022/07/23 04:22:20;;;;;;;3.75;2.40;;;;;;;37.02;25.02;98195.34;5024886;28;20033;-82
2022/07/23 04:24:46;;;;;;;4.13;2.50;;;;;;;37.22;25.55;98207.34;5030047;28;20056;-83
2022/07/23 04:27:12;;;;;;;3.28;2.70;;;;;;;37.67;25.46;98205.19;5026068;28;21787;-82
2022/07/23 04:29:38;;;;;;;2.60;2.40;;;;;;;38.16;24.90;98209.19;5028730;28;20088;-82
2022/07/23 04:32:04;;;;;;;2.50;2.30;;;;;;;38.00;24.77;98201.44;5030209;28;20107;-82
2022/07/23 04:34:31;;;;;;;3.00;2.33;;;;;;;37.44;24.92;98194.31;5030426;28;20033;-82
2022/07/23 04:36:57;;;;;;;3.05;2.63;;;;;;;37.16;25.36;98195.09;5024330;28;20502;-81
2022/07/23 04:39:23;;;;;;;2.90;2.70;;;;;;;37.07;25.64;98195.34;5026115;28;20044;-82
2022/07/23 04:41:49;;;;;;;2.95;2.65;;;;;;;37.25;25.34;98185.47;5026032;28;20033;-82
2022/07/23 04:44:15;;;;;;;2.40;2.13;;;;;;;37.62;25.65;98194.53;5025417;28;20038;-81
2022/07/23 04:46:41;;;;;;;2.40;2.20;;;;;;;38.39;24.44;98184.09;5028276;28;20030;-82
2022/07/23 04:49:07;;;;;;;2.38;2.17;;;;;;;38.41;24.02;98175.72;5027195;28;20037;-82
2022/07/23 04:51:33;;;;;;;2.60;2.40;;;;;;;38.23;24.60;98177.09;5027820;28;20038;-82
2022/07/23 04:53:59;;;;;;;2.83;2.45;;;;;;;38.23;24.61;98176.31;5026533;28;20543;-82
2022/07/23 04:56:25;;;;;;;1.90;1.73;;;;;;;38.35;24.88;98184.34;5028459;28;20029;-82
2022/07/23 04:58:52;;;;;;;2.65;2.40;;;;;;;38.49;24.76;98183.22;5028917;28;20033;-82
2022/07/23 05:01:18;;;;;;;2.30;2.17;;;;;;;38.57;24.60;98178.50;5022626;28;20038;-82
2022/07/23 05:03:44;;;;;;;2.40;2.20;;;;;;;38.38;24.08;98182.50;5026895;28;20030;-82
2022/07/23 05:06:10;;;;;;;2.80;2.22;;;;;;;38.44;25.33;98171.78;5024550;28;20038;-81
2022/07/23 05:08:36;;;;;;;1.98;1.88;;;;;;;38.48;24.74;98173.06;5033449;28;20509;-82
2022/07/23 05:11:02;;;;;;;3.42;2.90;;;;;;;38.59;24.75;98181.59;5033874;28;20062;-81
2022/07/23 05:13:28;;;;;;;2.53;2.30;;;;;;;38.64;24.59;98177.13;5030520;28;20037;-81
2022/07/23 05:15:54;;;;;;;2.45;1.95;;;;;;;38.72;24.50;98178.13;5034299;28;20022;-82
2022/07/23 05:18:20;;;;;;;2.95;2.08;;;;;;;38.89;24.95;98180.88;5022192;28;20048;-82
2022/07/23 05:20:46;;;;;;;2.70;2.42;;;;;;;38.69;23.63;98179.97;5034172;28;20053;-82
2022/07/23 05:23:13;;;;;;;3.22;2.35;;;;;;;38.69;24.68;98184.94;5026582;28;20026;-82
2022/07/23 05:25:39;;;;;;;2.15;1.95;;;;;;;38.77;25.59;98182.31;5033489;28;20057;-81
2022/07/23 05:28:05;;;;;;;1.90;1.80;;;;;;;39.00;24.45;98180.81;5033812;28;20033;-81
2022/07/23 05:30:31;;;;;;;3.13;2.13;;;;;;;39.20;24.13;98178.28;5034104;28;20486;-82
2022/07/23 05:32:57;;;;;;;1.98;1.88;;;;;;;39.21;24.54;98185.56;5033713;28;20030;-82
2022/07/23 05:35:24;;;;;;;3.38;2.28;;;;;;;39.20;24.06;98178.28;5023528;28;20037;-82
2022/07/23 05:37:52;;;;;;;2.00;1.90;;;;;;;38.79;24.52;98179.66;5065137;28;20401;-82
2022/07/23 05:40:18;;;;;;;2.92;2.38;;;;;;;38.55;24.24;98178.25;5033038;28;20041;-82
2022/07/23 05:42:44;;;;;;;2.63;2.20;;;;;;;38.73;24.48;98173.97;5033122;28;20035;-82
2022/07/23 05:45:11;;;;;;;2.22;2.00;;;;;;;38.69;24.85;98174.22;5033376;28;20489;-82
2022/07/23 05:48:04;;;;;;;2.50;2.30;;;;;;;38.48;24.67;98169.41;5031725;28;20217;-82
2022/07/23 05:50:30;;;;;;;2.20;2.00;;;;;;;38.52;24.61;98169.91;5023326;28;20049;-83
2022/07/23 05:52:56;;;;;;;2.20;2.00;;;;;;;38.30;24.98;98170.06;5029147;28;20493;-83
2022/07/23 05:55:22;;;;;;;2.65;2.30;;;;;;;38.34;24.90;98170.53;5028136;28;20120;-82
2022/07/23 05:57:48;;;;;;;2.35;2.15;;;;;;;38.38;24.57;98168.94;5032944;28;20115;-83
2022/07/23 06:00:14;;;;;;;2.33;2.10;;;;;;;38.57;25.12;98167.00;5033573;28;20041;-83
2022/07/23 06:02:40;;;;;;;2.95;1.58;;;;;;;38.76;25.09;98172.91;5028059;28;20061;-82
2022/07/23 06:05:07;;;;;;;1.90;1.80;;;;;;;38.72;25.15;98164.56;5027260;28;20493;-83
2022/07/23 06:07:34;;;;;;;2.60;2.20;;;;;;;38.90;24.91;98168.88;5023661;28;20053;-83
2022/07/23 06:10:00;;;;;;;2.35;2.15;;;;;;;38.84;25.33;98167.38;5027887;28;20505;-83
2022/07/23 06:12:27;;;;;;;2.55;2.40;;;;;;;38.51;24.81;98159.75;5025825;28;20478;-83
2022/07/23 06:14:53;;;;;;;3.33;2.75;;;;;;;38.55;25.04;98163.09;5027443;28;20021;-83
2022/07/23 06:17:19;;;;;;;2.80;2.55;;;;;;;38.75;24.53;98156.97;5024574;28;20040;-83
2022/07/23 06:19:45;;;;;;;2.75;2.55;;;;;;;38.80;25.23;98156.16;5021551;28;20064;-83
2022/07/23 06:22:11;;;;;;;2.65;2.45;;;;;;;38.84;25.32;98158.75;5031861;28;20033;-83
2022/07/23 06:24:37;;;;;;;2.88;2.67;;;;;;;39.36;24.69;98162.19;5031850;28;20069;-83
2022/07/23 06:27:05;;;;;;;2.72;2.35;;;;;;;39.80;23.68;98155.97;5038847;28;20040;-83
2022/07/23 06:29:31;;;;;;;3.25;2.90;;;;;;;40.14;24.12;98155.56;5030380;28;20120;-83
2022/07/23 06:31:57;;;;;;;3.08;2.75;;;;;;;40.03;24.01;98154.41;5021901;28;20041;-83
2022/07/23 06:34:23;;;;;;;2.50;2.22;;;;;;;40.52;23.46;98136.97;5023350;28;20044;-83
2022/07/23 06:36:49;;;;;;;3.53;3.20;;;;;;;40.47;23.65;98138.63;5027901;28;20033;-83
2022/07/23 06:39:15;;;;;;;3.13;2.50;;;;;;;40.59;23.47;98140.00;5028693;28;20137;-80
2022/07/23 06:41:41;;;;;;;2.72;2.53;;;;;;;40.44;22.92;98136.84;5029087;28;20034;-81
2022/07/23 06:44:07;;;;;;;3.10;2.42;;;;;;;39.19;24.19;98136.50;5024926;28;20029;-81
2022/07/23 06:46:34;;;;;;;2.80;2.55;;;;;;;39.43;23.30;98134.94;5026874;28;20038;-81
2022/07/23 06:49:00;;;;;;;3.15;2.95;;;;;;;38.93;24.10;98135.44;5023752;28;20044;-82
2022/07/23 06:51:26;;;;;;;2.97;2.78;;;;;;;39.33;24.18;98132.44;5027384;28;20052;-82
2022/07/23 06:53:52;;;;;;;3.50;2.30;;;;;;;39.58;23.74;98133.25;5027256;28;20029;-82
2022/07/23 06:56:18;;;;;;;2.88;2.60;;;;;;;40.30;22.40;98137.28;5024452;28;20103;-82
2022/07/23 06:58:44;;;;;;;4.20;3.42;;;;;;;40.44;22.93;98133.97;5027432;28;20039;-81
2022/07/23 07:01:10;;;;;;;3.85;3.10;;;;;;;39.78;22.74;98129.84;5024652;28;20033;-82
2022/07/23 07:03:36;;;;;;;3.40;3.10;;;;;;;39.63;22.54;98135.25;5024435;28;20113;-81
2022/07/23 07:06:03;;;;;;;5.88;3.47;;;;;;;40.11;23.80;98128.66;5025748;28;20049;-83
2022/07/23 07:08:29;;;;;;;2.53;2.33;;;;;;;40.93;22.88;98136.59;5018953;28;20032;-81
2022/07/23 07:10:55;;;;;;;2.92;2.70;;;;;;;40.06;23.15;98132.41;5025130;28;20109;-80
2022/07/23 07:13:21;;;;;;;3.97;2.95;;;;;;;39.96;24.09;98134.84;5020913;28;20044;-80
2022/07/23 07:15:47;;;;;;;2.70;2.50;;;;;;;40.01;22.83;98127.50;5021467;28;20505;-80
2022/07/23 07:18:13;;;;;;;4.20;2.85;;;;;;;40.63;23.49;98131.81;5022572;28;20053;-80
2022/07/23 07:20:39;;;;;;;3.08;2.78;;;;;;;41.09;23.12;98127.69;5021068;28;20064;-78
2022/07/23 07:23:05;;;;;;;3.35;3.05;;;;;;;41.62;22.77;98119.88;5022468;28;20091;-80
2022/07/23 07:25:31;;;;;;;2.80;2.60;;;;;;;41.24;21.62;98116.38;5022523;28;20038;-81
2022/07/23 07:27:57;;;;;;;3.40;3.05;;;;;;;39.77;23.83;98125.41;5025569;28;20567;-81
2022/07/23 07:30:24;;;;;;;3.08;2.80;;;;;;;39.24;23.19;98118.44;5021850;28;20079;-81
2022/07/23 07:32:50;;;;;;;3.60;3.17;;;;;;;39.05;24.04;98116.75;5022557;28;20033;-81
2022/07/23 07:35:16;;;;;;;3.10;2.60;;;;;;;40.05;22.82;98115.69;5025122;28;20404;-80
2022/07/23 07:37:42;;;;;;;2.75;2.55;;;;;;;40.82;22.20;98100.09;5026417;28;20029;-79
2022/07/23 07:40:09;;;;;;;2.97;2.67;;;;;;;40.67;22.55;98106.38;5026020;28;20057;-80
2022/07/23 07:42:43;;;;;;;2.80;2.60;;;;;;;41.54;21.52;98101.69;5029753;28;20064;-80
2022/07/23 07:45:09;;;;;;;2.55;2.35;;;;;;;41.91;20.42;98107.22;5029020;28;20438;-79
2022/07/23 07:47:36;;;;;;;3.65;2.55;;;;;;;42.12;21.53;98107.31;5031542;28;20034;-80
2022/07/23 07:50:02;;;;;;;2.70;2.50;;;;;;;41.57;21.15;98108.47;5024863;28;20065;-80
2022/07/23 07:52:28;;;;;;;2.97;2.78;;;;;;;41.12;22.14;98105.63;5020521;28;20506;-79
2022/07/23 07:54:54;;;;;;;2.72;2.53;;;;;;;40.85;21.72;98109.72;5028153;28;20041;-80
2022/07/23 07:57:20;;;;;;;4.35;3.00;;;;;;;41.27;22.04;98109.53;5025151;28;20034;-80
2022/07/23 07:59:46;;;;;;;3.30;2.45;;;;;;;41.11;21.86;98110.59;5024813;28;20084;-79
2022/07/23 08:02:12;;;;;;;2.90;2.70;;;;;;;40.48;22.98;98116.38;5022252;28;20532;-80
2022/07/23 08:04:38;;;;;;;2.72;2.53;;;;;;;40.76;22.04;98127.44;5023038;28;20509;-79
2022/07/23 08:07:04;;;;;;;2.35;2.15;;;;;;;40.76;22.72;98119.59;5023776;28;20030;-79
2022/07/23 08:09:30;;;;;;;6.28;2.97;;;;;;;41.10;22.04;98129.22;5022148;28;20455;-79
2022/07/23 08:11:56;;;;;;;3.15;2.90;;;;;;;41.70;21.78;98120.00;5032689;28;20030;-79
2022/07/23 08:14:22;;;;;;;4.10;3.20;;;;;;;41.54;21.58;98118.22;5029168;28;20124;-79
2022/07/23 08:16:48;;;;;;;3.38;3.10;;;;;;;41.41;22.00;98126.84;5026228;28;20022;-80
2022/07/23 08:19:14;;;;;;;4.20;3.78;;;;;;;40.80;23.10;98125.78;5023364;28;20045;-80
2022/07/23 08:21:40;;;;;;;3.22;3.03;;;;;;;41.13;21.08;98130.22;5018010;28;20087;-80
2022/07/23 08:24:06;;;;;;;3.60;2.50;;;;;;;42.21;20.42;98129.16;5027482;28;20037;-81
2022/07/23 08:26:33;;;;;;;2.75;2.53;;;;;;;42.54;19.27;98123.41;5023106;28;20038;-81
2022/07/23 08:28:59;;;;;;;2.67;2.47;;;;;;;42.49;20.17;98132.19;5029758;28;20033;-81
2022/07/23 08:31:25;;;;;;;2.45;2.25;;;;;;;42.94;19.35;98123.25;5028655;28;20029;-81
2022/07/23 08:33:52;;;;;;;2.85;2.65;;;;;;;43.38;17.70;98122.06;5023327;28;20033;-82
2022/07/23 08:36:18;;;;;;;2.30;2.20;;;;;;;43.49;17.71;98132.56;5021045;28;20127;-82
2022/07/23 08:38:44;;;;;;;2.30;2.20;;;;;;;42.99;18.64;98133.88;5025685;28;20029;-82
2022/07/23 08:41:11;;;;;;;3.15;2.42;;;;;;;43.52;18.66;98125.63;5019066;28;20172;-82
2022/07/23 08:43:37;;;;;;;2.40;2.10;;;;;;;43.95;17.53;98117.78;5025151;28;20094;-82
2022/07/23 08:46:04;;;;;;;2.42;2.25;;;;;;;43.75;19.60;98115.78;5026217;28;20029;-83
2022/07/23 08:48:32;;;;;;;2.47;2.28;;;;;;;41.79;21.58;98114.56;5021151;28;20025;-82
2022/07/23 08:51:00;;;;;;;4.30;2.78;;;;;;;41.54;20.41;98103.78;5026083;28;20030;-82
2022/07/23 08:53:28;;;;;;;3.10;2.80;;;;;;;42.39;19.41;98096.44;5028884;28;20059;-81
2022/07/23 08:55:57;;;;;;;2.90;2.67;;;;;;;41.90;20.52;98099.88;5029794;28;20358;-81
2022/07/23 08:58:24;;;;;;;2.88;2.67;;;;;;;42.44;20.18;98086.88;5022242;28;20033;-83
2022/07/23 09:00:51;;;;;;;3.17;2.88;;;;;;;41.54;21.94;98077.84;5029137;28;20036;-82
2022/07/23 09:03:19;;;;;;;2.97;2.50;;;;;;;42.53;20.80;98075.66;5027842;28;20044;-82
2022/07/23 09:05:46;;;;;;;3.70;2.78;;;;;;;42.96;19.76;98083.00;5022660;28;20434;-82
2022/07/23 09:08:15;;;;;;;2.70;2.30;;;;;;;42.62;18.56;98065.69;5024747;28;20052;-82
2022/07/23 09:10:53;;;;;;;3.13;2.92;;;;;;;43.27;19.25;98070.31;5029397;28;20038;-82
2022/07/23 09:13:36;;;;;;;3.35;2.80;;;;;;;42.03;19.42;98076.00;5027007;28;20076;-82
2022/07/23 09:16:06;;;;;;;4.60;2.70;;;;;;;41.60;20.14;98072.72;5019511;28;20033;-82
2022/07/23 09:18:37;;;;;;;;;;;;;;;41.75;19.51;98076.63;5023333;28;20536;-82
2022/07/23 09:21:07;;;;;;;3.67;2.42;;;;;;;42.80;19.97;98075.50;5028163;28;19921;-82
2022/07/23 09:23:47;;;;;;;3.08;2.42;;;;;;;42.79;19.82;98073.94;5026213;28;20386;-82
2022/07/23 09:26:31;;;;;;;4.88;2.33;;;;;;;43.48;18.27;98081.84;5026495;28;20029;-82
2022/07/23 09:29:02;;;;;;;3.58;2.70;;;;;;;43.93;16.70;98085.75;5019393;28;20037;-81
2022/07/23 09:31:44;;;;;;;4.47;2.47;;;;;;;44.13;17.63;98092.81;5025137;28;20038;-81
2022/07/23 09:34:32;;;;;;;2.67;2.45;;;;;;;43.14;18.21;98088.53;5020837;28;20072;-82
2022/07/23 09:37:15;;;;;;;2.90;2.20;;;;;;;42.59;17.89;98087.06;5026128;28;20045;-80
2022/07/23 09:39:42;;;;;;;2.63;2.42;;;;;;;43.05;18.35;98079.59;5025135;28;20604;-81
2022/07/23 09:42:20;;;;;;;2.80;2.55;;;;;;;43.20;17.71;98076.81;5025163;28;20048;-80
2022/07/23 09:44:49;;;;;;;2.40;2.22;;;;;;;43.56;18.20;98076.88;5023477;28;20037;-80
2022/07/23 09:47:15;;;;;;;2.38;2.17;;;;;;;44.10;17.33;98072.91;5023960;28;20037;-79
2022/07/23 09:50:03;;;;;;;2.38;2.17;;;;;;;44.47;16.82;98069.38;5025663;28;20033;-80
2022/07/23 09:52:31;;;;;;;2.10;1.90;;;;;;;44.85;15.62;98072.34;5022311;28;20132;-81
2022/07/23 09:55:00;;;;;;;2.45;2.10;;;;;;;44.69;16.52;98071.53;5028001;28;20034;-81
2022/07/23 09:57:27;;;;;;;2.47;2.28;;;;;;;44.66;15.49;98066.13;5023409;28;20030;-81
2022/07/23 09:59:57;;;;;;;2.35;2.22;;;;;;;44.04;17.24;98060.72;5021104;28;20113;-81
2022/07/23 10:02:24;;;;;;;2.28;2.10;;;;;;;44.00;15.96;98060.34;5021179;28;20038;-80
2022/07/23 10:04:53;;;;;;;2.83;2.58;;;;;;;43.44;17.47;98061.97;5022066;28;20520;-81
2022/07/23 10:07:23;;;;;;;2.90;2.70;;;;;;;44.26;16.19;98060.03;5025056;28;20141;-80
2022/07/23 10:09:52;;;;;;;3.22;2.92;;;;;;;42.77;18.75;98054.28;5026979;28;20030;-81
2022/07/23 10:15:15;;;;;;;3.45;3.15;;;;;;;43.65;18.10;98051.06;5023797;28;20082;-81
2022/07/23 10:17:41;;;;;;;4.05;2.50;;;;;;;44.32;17.35;98049.81;5019324;28;20069;-81
2022/07/23 10:20:07;;;;;;;2.72;2.53;;;;;;;44.04;16.86;98057.84;5022332;28;20033;-81
2022/07/23 10:22:42;;;;;;;2.17;2.08;;;;;;;44.78;15.95;98055.69;5023544;28;20425;-81
2022/07/23 10:25:21;;;;;;;2.47;2.35;;;;;;;45.14;15.89;98056.28;5022662;28;20041;-82
2022/07/23 10:28:04;;;;;;;2.50;2.40;;;;;;;45.09;14.61;98057.25;5027045;28;20091;-81
2022/07/23 10:30:43;;;;;;;2.40;2.30;;;;;;;44.43;16.48;98048.69;5021640;28;20037;-81
2022/07/23 10:33:54;;;;;;;3.35;2.17;;;;;;;45.10;14.91;98045.06;5020496;28;20041;-82
2022/07/23 10:36:52;;;;;;;2.28;2.17;;;;;;;45.40;15.89;98044.25;5021789;28;20041;-81
2022/07/23 10:39:26;;;;;;;1.90;1.80;;;;;;;45.58;15.18;98042.28;5022256;28;20052;-80
2022/07/23 10:42:07;;;;;;;2.00;1.90;;;;;;;45.96;14.57;98045.09;5023823;28;20034;-81
2022/07/23 10:44:40;;;;;;;1.92;1.77;;;;;;;46.02;14.00;98036.94;5021112;28;20033;-82
2022/07/23 10:49:34;;;;;;;3.00;1.83;;;;;;;45.93;14.15;98033.25;5038872;28;20050;-80
2022/07/23 10:52:25;;;;;;;1.70;1.60;;;;;;;45.97;15.08;98029.22;5041757;28;20389;-81
2022/07/23 10:54:56;;;;;;;2.25;1.83;;;;;;;46.10;15.79;98029.72;5038089;28;20116;-82
2022/07/23 10:57:25;;;;;;;1.80;1.70;;;;;;;45.88;14.98;98033.50;5043046;28;20087;-82
2022/07/23 11:02:33;;;;;;;2.78;2.05;;;;;;;45.51;14.21;98022.78;5048388;28;20032;-82
2022/07/23 11:05:04;;;;;;;2.40;2.28;;;;;;;44.91;16.21;98017.84;5050308;28;20029;-81
2022/07/23 11:07:30;;;;;;;2.03;1.92;;;;;;;44.88;15.50;98022.69;5048245;28;20124;-81
2022/07/23 11:09:57;;;;;;;3.15;2.90;;;;;;;45.11;15.19;98019.75;5044162;28;20079;-81
2022/07/23 11:12:23;;;;;;;3.42;2.50;;;;;;;45.18;15.91;98016.84;5047125;28;20040;-82
2022/07/23 11:15:02;;;;;;;2.72;2.53;;;;;;;45.18;14.73;98021.88;5042055;28;20176;-81
2022/07/23 11:17:31;;;;;;;4.85;3.30;;;;;;;44.60;15.55;98014.91;5041288;28;20493;-81
2022/07/23 11:20:20;;;;;;;3.70;3.50;;;;;;;44.51;15.50;98012.59;5048771;28;20401;-82
2022/07/23 11:22:56;;;;;;;4.13;3.42;;;;;;;43.66;17.08;98017.91;5045065;28;20037;-81
2022/07/23 11:25:22;;;;;;;3.10;2.90;;;;;;;43.24;16.62;98017.28;5045507;28;20033;-81
2022/07/23 11:27:50;;;;;;;3.28;3.08;;;;;;;42.99;17.64;98009.63;5046821;28;20105;-81
2022/07/23 11:30:28;;;;;;;3.40;3.10;;;;;;;42.92;18.30;98004.56;5046644;28;20037;-82
2022/07/23 11:33:07;;;;;;;4.18;3.78;;;;;;;42.33;18.58;98006.31;5063298;28;20032;-81
2022/07/23 11:35:34;;;;;;;3.95;3.65;;;;;;;42.98;16.84;98008.84;5063589;28;20048;-82
2022/07/23 11:38:12;;;;;;;4.38;4.07;;;;;;;43.69;17.34;98004.47;5067234;28;20073;-82
2022/07/23 11:40:39;;;;;;;3.88;3.58;;;;;;;45.03;14.59;97999.47;5062815;28;20028;-82
2022/07/23 11:43:07;;;;;;;3.60;3.30;;;;;;;45.80;14.25;97989.97;5065401;28;20099;-83
2022/07/23 11:45:45;;;;;;;3.45;3.15;;;;;;;45.92;14.69;97993.97;5063386;28;20080;-82